sensor_id;sensor_type;location;lat;lon;timestamp;pressure;altitude;pressure_sealevel;temperature;humidity
51053;BME280;37093;37.716;-122.060;2023-04-22T00:01:15;100467.74;;;27.46;25.93
51053;BME280;37093;37.716;-122.060;2023-04-22T00:03:43;100468.20;;;27.65;25.85
51053;BME280;37093;37.716;-122.060;2023-04-22T00:06:13;100465.78;;;27.35;25.73
51053;BME280;37093;37.716;-122.060;2023-04-22T00:08:41;100468.73;;;27.33;26.40
51053;BME280;37093;37.716;-122.060;2023-04-22T00:11:10;100470.25;;;27.67;25.59
51053;BME280;37093;37.716;-122.060;2023-04-22T00:13:38;100469.98;;;27.51;25.72
51053;BME280;37093;37.716;-122.060;2023-04-22T00:16:07;100470.36;;;27.04;25.90
51053;BME280;37093;37.716;-122.060;2023-04-22T00:18:35;100463.16;;;27.39;25.65
51053;BME280;37093;37.716;-122.060;2023-04-22T00:21:04;100465.65;;;27.31;26.26
51053;BME280;37093;37.716;-122.060;2023-04-22T00:23:33;100464.23;;;27.46;25.72
51053;BME280;37093;37.716;-122.060;2023-04-22T00:26:01;100463.03;;;27.35;26.11
51053;BME280;37093;37.716;-122.060;2023-04-22T00:28:30;100455.91;;;26.69;26.61
51053;BME280;37093;37.716;-122.060;2023-04-22T00:30:58;100461.61;;;26.80;26.01
51053;BME280;37093;37.716;-122.060;2023-04-22T00:33:27;100463.79;;;26.67;26.58
51053;BME280;37093;37.716;-122.060;2023-04-22T00:35:55;100470.29;;;26.33;26.85
51053;BME280;37093;37.716;-122.060;2023-04-22T00:38:23;100462.42;;;26.45;27.39
51053;BME280;37093;37.716;-122.060;2023-04-22T00:40:52;100459.82;;;26.86;27.21
51053;BME280;37093;37.716;-122.060;2023-04-22T00:43:21;100457.52;;;26.89;26.92
51053;BME280;37093;37.716;-122.060;2023-04-22T00:45:49;100458.65;;;26.23;27.57
51053;BME280;37093;37.716;-122.060;2023-04-22T00:48:18;100453.06;;;25.94;27.93
51053;BME280;37093;37.716;-122.060;2023-04-22T00:50:47;100455.17;;;25.72;28.58
51053;BME280;37093;37.716;-122.060;2023-04-22T00:53:15;100455.24;;;25.87;28.38
51053;BME280;37093;37.716;-122.060;2023-04-22T00:55:44;100455.82;;;25.56;28.73
51053;BME280;37093;37.716;-122.060;2023-04-22T00:58:13;100453.10;;;24.90;29.97
51053;BME280;37093;37.716;-122.060;2023-04-22T01:00:41;100452.01;;;25.55;29.08
51053;BME280;37093;37.716;-122.060;2023-04-22T01:03:09;100449.96;;;25.86;28.95
51053;BME280;37093;37.716;-122.060;2023-04-22T01:05:38;100450.12;;;25.68;29.09
51053;BME280;37093;37.716;-122.060;2023-04-22T01:08:07;100448.71;;;25.91;28.81
51053;BME280;37093;37.716;-122.060;2023-04-22T01:10:36;100448.07;;;26.03;28.47
51053;BME280;37093;37.716;-122.060;2023-04-22T01:13:04;100449.40;;;26.10;28.33
51053;BME280;37093;37.716;-122.060;2023-04-22T01:15:33;100449.58;;;26.57;27.71
51053;BME280;37093;37.716;-122.060;2023-04-22T01:18:01;100446.01;;;26.70;27.99
51053;BME280;37093;37.716;-122.060;2023-04-22T01:20:30;100444.18;;;26.65;27.32
51053;BME280;37093;37.716;-122.060;2023-04-22T01:23:01;100441.21;;;25.96;28.23
51053;BME280;37093;37.716;-122.060;2023-04-22T01:25:30;100437.84;;;25.39;28.55
51053;BME280;37093;37.716;-122.060;2023-04-22T01:27:58;100432.05;;;25.80;28.47
51053;BME280;37093;37.716;-122.060;2023-04-22T01:30:27;100431.56;;;25.70;28.20
51053;BME280;37093;37.716;-122.060;2023-04-22T01:32:56;100431.78;;;26.23;28.10
51053;BME280;37093;37.716;-122.060;2023-04-22T01:35:25;100425.26;;;26.52;28.28
51053;BME280;37093;37.716;-122.060;2023-04-22T01:37:53;100418.19;;;26.70;27.90
51053;BME280;37093;37.716;-122.060;2023-04-22T01:40:22;100413.88;;;26.90;27.57
51053;BME280;37093;37.716;-122.060;2023-04-22T01:42:51;100406.07;;;26.97;27.67
51053;BME280;37093;37.716;-122.060;2023-04-22T01:45:20;100413.83;;;26.03;28.53
51053;BME280;37093;37.716;-122.060;2023-04-22T01:47:48;100408.88;;;25.79;29.44
51053;BME280;37093;37.716;-122.060;2023-04-22T01:50:17;100411.51;;;26.17;29.09
51053;BME280;37093;37.716;-122.060;2023-04-22T01:52:45;100408.38;;;26.27;28.75
51053;BME280;37093;37.716;-122.060;2023-04-22T01:55:14;100407.55;;;25.46;30.03
51053;BME280;37093;37.716;-122.060;2023-04-22T01:57:43;100406.44;;;26.02;29.94
51053;BME280;37093;37.716;-122.060;2023-04-22T02:00:12;100406.32;;;25.92;28.69
51053;BME280;37093;37.716;-122.060;2023-04-22T02:02:40;100407.76;;;26.27;28.50
51053;BME280;37093;37.716;-122.060;2023-04-22T02:05:10;100402.03;;;26.27;29.06
51053;BME280;37093;37.716;-122.060;2023-04-22T02:07:38;100402.16;;;26.42;28.67
51053;BME280;37093;37.716;-122.060;2023-04-22T02:10:07;100401.99;;;26.38;28.47
51053;BME280;37093;37.716;-122.060;2023-04-22T02:12:36;100401.27;;;25.88;28.54
51053;BME280;37093;37.716;-122.060;2023-04-22T02:15:06;100404.61;;;26.33;28.88
51053;BME280;37093;37.716;-122.060;2023-04-22T02:17:35;100401.58;;;25.82;29.22
51053;BME280;37093;37.716;-122.060;2023-04-22T02:20:04;100401.96;;;25.89;29.16
51053;BME280;37093;37.716;-122.060;2023-04-22T02:22:33;100396.78;;;25.85;29.42
51053;BME280;37093;37.716;-122.060;2023-04-22T02:25:01;100397.03;;;25.59;30.23
51053;BME280;37093;37.716;-122.060;2023-04-22T02:27:30;100398.68;;;25.67;30.36
51053;BME280;37093;37.716;-122.060;2023-04-22T02:29:58;100399.11;;;25.61;29.68
51053;BME280;37093;37.716;-122.060;2023-04-22T02:32:27;100392.95;;;25.50;29.90
51053;BME280;37093;37.716;-122.060;2023-04-22T02:34:56;100391.62;;;25.34;30.36
51053;BME280;37093;37.716;-122.060;2023-04-22T02:37:24;100392.15;;;25.72;30.65
51053;BME280;37093;37.716;-122.060;2023-04-22T02:39:53;100391.00;;;25.71;30.84
51053;BME280;37093;37.716;-122.060;2023-04-22T02:42:21;100389.75;;;25.51;30.32
51053;BME280;37093;37.716;-122.060;2023-04-22T02:44:50;100386.48;;;25.49;30.31
51053;BME280;37093;37.716;-122.060;2023-04-22T02:47:18;100382.64;;;25.51;30.20
51053;BME280;37093;37.716;-122.060;2023-04-22T02:49:47;100380.78;;;25.40;30.37
51053;BME280;37093;37.716;-122.060;2023-04-22T02:52:15;100384.42;;;25.62;30.48
51053;BME280;37093;37.716;-122.060;2023-04-22T02:54:43;100385.19;;;25.40;31.08
51053;BME280;37093;37.716;-122.060;2023-04-22T02:57:11;100384.82;;;25.38;31.01
51053;BME280;37093;37.716;-122.060;2023-04-22T02:59:40;100386.31;;;25.42;30.85
51053;BME280;37093;37.716;-122.060;2023-04-22T03:02:08;100387.28;;;25.18;31.69
51053;BME280;37093;37.716;-122.060;2023-04-22T03:04:37;100388.73;;;24.96;31.12
51053;BME280;37093;37.716;-122.060;2023-04-22T03:07:05;100377.31;;;24.98;32.21
51053;BME280;37093;37.716;-122.060;2023-04-22T03:09:33;100378.06;;;24.72;32.66
51053;BME280;37093;37.716;-122.060;2023-04-22T03:12:02;100373.99;;;24.42;32.58
51053;BME280;37093;37.716;-122.060;2023-04-22T03:14:30;100370.19;;;24.40;32.65
51053;BME280;37093;37.716;-122.060;2023-04-22T03:16:59;100368.12;;;24.39;32.59
51053;BME280;37093;37.716;-122.060;2023-04-22T03:19:27;100365.60;;;24.58;32.51
51053;BME280;37093;37.716;-122.060;2023-04-22T03:21:56;100367.04;;;24.70;32.71
51053;BME280;37093;37.716;-122.060;2023-04-22T03:24:24;100371.18;;;24.79;32.88
51053;BME280;37093;37.716;-122.060;2023-04-22T03:26:52;100372.30;;;24.15;33.11
51053;BME280;37093;37.716;-122.060;2023-04-22T03:29:21;100370.79;;;23.78;34.11
51053;BME280;37093;37.716;-122.060;2023-04-22T03:31:49;100370.78;;;24.00;33.93
51053;BME280;37093;37.716;-122.060;2023-04-22T03:34:18;100368.87;;;24.15;33.71
51053;BME280;37093;37.716;-122.060;2023-04-22T03:36:47;100373.04;;;24.06;34.05
51053;BME280;37093;37.716;-122.060;2023-04-22T03:39:15;100373.01;;;24.45;34.22
51053;BME280;37093;37.716;-122.060;2023-04-22T03:41:44;100375.49;;;23.81;34.37
51053;BME280;37093;37.716;-122.060;2023-04-22T03:44:12;100372.94;;;24.29;34.21
51053;BME280;37093;37.716;-122.060;2023-04-22T03:46:40;100374.87;;;23.79;34.42
51053;BME280;37093;37.716;-122.060;2023-04-22T03:49:09;100376.50;;;24.20;34.53
51053;BME280;37093;37.716;-122.060;2023-04-22T03:51:38;100377.13;;;23.61;34.67
51053;BME280;37093;37.716;-122.060;2023-04-22T03:54:07;100376.01;;;23.58;34.74
51053;BME280;37093;37.716;-122.060;2023-04-22T03:56:36;100379.46;;;23.69;35.22
51053;BME280;37093;37.716;-122.060;2023-04-22T03:59:04;100382.72;;;23.60;35.08
51053;BME280;37093;37.716;-122.060;2023-04-22T04:01:32;100384.12;;;23.68;35.28
51053;BME280;37093;37.716;-122.060;2023-04-22T04:04:01;100382.40;;;23.67;35.07
51053;BME280;37093;37.716;-122.060;2023-04-22T04:06:29;100384.84;;;23.27;35.36
51053;BME280;37093;37.716;-122.060;2023-04-22T04:08:58;100388.56;;;23.46;35.47
51053;BME280;37093;37.716;-122.060;2023-04-22T04:11:26;100384.80;;;23.34;35.65
51053;BME280;37093;37.716;-122.060;2023-04-22T04:13:54;100385.22;;;23.30;35.65
51053;BME280;37093;37.716;-122.060;2023-04-22T04:16:23;100384.52;;;23.29;35.75
51053;BME280;37093;37.716;-122.060;2023-04-22T04:18:52;100384.35;;;23.13;35.75
51053;BME280;37093;37.716;-122.060;2023-04-22T04:21:20;100385.70;;;23.00;35.94
51053;BME280;37093;37.716;-122.060;2023-04-22T04:23:49;100389.64;;;22.86;36.22
51053;BME280;37093;37.716;-122.060;2023-04-22T04:26:17;100391.95;;;22.72;36.32
51053;BME280;37093;37.716;-122.060;2023-04-22T04:28:46;100392.81;;;22.76;35.70
51053;BME280;37093;37.716;-122.060;2023-04-22T04:31:15;100393.59;;;22.67;36.11
51053;BME280;37093;37.716;-122.060;2023-04-22T04:33:43;100396.40;;;22.65;36.16
51053;BME280;37093;37.716;-122.060;2023-04-22T04:36:12;100390.33;;;22.56;36.25
51053;BME280;37093;37.716;-122.060;2023-04-22T04:38:40;100388.35;;;22.58;35.73
51053;BME280;37093;37.716;-122.060;2023-04-22T04:41:09;100387.61;;;22.57;36.35
51053;BME280;37093;37.716;-122.060;2023-04-22T04:43:37;100386.90;;;22.49;36.47
51053;BME280;37093;37.716;-122.060;2023-04-22T04:46:06;100385.55;;;22.41;36.59
51053;BME280;37093;37.716;-122.060;2023-04-22T04:48:34;100386.30;;;22.54;36.79
51053;BME280;37093;37.716;-122.060;2023-04-22T04:51:03;100383.85;;;22.73;36.83
51053;BME280;37093;37.716;-122.060;2023-04-22T04:53:31;100381.96;;;22.23;36.90
51053;BME280;37093;37.716;-122.060;2023-04-22T04:55:59;100381.14;;;22.21;37.03
51053;BME280;37093;37.716;-122.060;2023-04-22T04:58:28;100385.66;;;22.56;37.28
51053;BME280;37093;37.716;-122.060;2023-04-22T05:00:56;100385.64;;;22.24;37.33
51053;BME280;37093;37.716;-122.060;2023-04-22T05:03:25;100379.67;;;22.33;37.32
51053;BME280;37093;37.716;-122.060;2023-04-22T05:05:53;100378.17;;;22.34;37.57
51053;BME280;37093;37.716;-122.060;2023-04-22T05:08:22;100378.02;;;22.30;37.44
51053;BME280;37093;37.716;-122.060;2023-04-22T05:10:51;100383.30;;;21.97;37.75
51053;BME280;37093;37.716;-122.060;2023-04-22T05:13:19;100389.37;;;22.12;37.81
51053;BME280;37093;37.716;-122.060;2023-04-22T05:15:47;100392.18;;;22.10;37.87
51053;BME280;37093;37.716;-122.060;2023-04-22T05:18:16;100393.05;;;21.76;37.92
51053;BME280;37093;37.716;-122.060;2023-04-22T05:20:44;100392.18;;;22.24;38.02
51053;BME280;37093;37.716;-122.060;2023-04-22T05:23:13;100396.71;;;22.00;37.91
51053;BME280;37093;37.716;-122.060;2023-04-22T05:25:41;100398.57;;;21.97;37.85
51053;BME280;37093;37.716;-122.060;2023-04-22T05:28:09;100396.38;;;21.89;38.03
51053;BME280;37093;37.716;-122.060;2023-04-22T05:30:38;100392.94;;;21.62;38.47
51053;BME280;37093;37.716;-122.060;2023-04-22T05:33:07;100390.74;;;21.57;38.55
51053;BME280;37093;37.716;-122.060;2023-04-22T05:35:35;100389.82;;;21.52;38.27
51053;BME280;37093;37.716;-122.060;2023-04-22T05:38:03;100386.67;;;21.53;38.35
51053;BME280;37093;37.716;-122.060;2023-04-22T05:40:33;100382.85;;;21.67;38.45
51053;BME280;37093;37.716;-122.060;2023-04-22T05:43:01;100376.57;;;21.42;38.27
51053;BME280;37093;37.716;-122.060;2023-04-22T05:45:29;100375.14;;;21.41;38.35
51053;BME280;37093;37.716;-122.060;2023-04-22T05:47:58;100371.21;;;21.35;38.28
51053;BME280;37093;37.716;-122.060;2023-04-22T05:50:26;100369.46;;;21.30;38.55
51053;BME280;37093;37.716;-122.060;2023-04-22T05:52:55;100366.25;;;21.18;38.69
51053;BME280;37093;37.716;-122.060;2023-04-22T05:55:23;100361.79;;;21.35;38.80
51053;BME280;37093;37.716;-122.060;2023-04-22T05:57:52;100358.81;;;21.51;39.03
51053;BME280;37093;37.716;-122.060;2023-04-22T06:00:20;100358.03;;;21.09;39.28
51053;BME280;37093;37.716;-122.060;2023-04-22T06:02:49;100358.00;;;20.82;39.35
51053;BME280;37093;37.716;-122.060;2023-04-22T06:05:17;100357.12;;;21.07;39.42
51053;BME280;37093;37.716;-122.060;2023-04-22T06:07:45;100355.23;;;20.89;39.47
51053;BME280;37093;37.716;-122.060;2023-04-22T06:10:14;100349.55;;;20.82;39.12
51053;BME280;37093;37.716;-122.060;2023-04-22T06:12:42;100347.08;;;21.28;39.03
51053;BME280;37093;37.716;-122.060;2023-04-22T06:15:11;100352.31;;;21.01;39.21
51053;BME280;37093;37.716;-122.060;2023-04-22T06:17:39;100350.28;;;21.24;39.37
51053;BME280;37093;37.716;-122.060;2023-04-22T06:20:09;100353.24;;;20.77;39.00
51053;BME280;37093;37.716;-122.060;2023-04-22T06:22:37;100354.28;;;21.24;39.27
51053;BME280;37093;37.716;-122.060;2023-04-22T06:25:07;100353.66;;;20.96;38.97
51053;BME280;37093;37.716;-122.060;2023-04-22T06:27:35;100347.10;;;21.16;39.18
51053;BME280;37093;37.716;-122.060;2023-04-22T06:30:05;100345.14;;;20.77;39.71
51053;BME280;37093;37.716;-122.060;2023-04-22T06:32:33;100345.76;;;20.95;39.52
51053;BME280;37093;37.716;-122.060;2023-04-22T06:35:02;100344.64;;;20.98;39.29
51053;BME280;37093;37.716;-122.060;2023-04-22T06:37:31;100347.20;;;20.93;39.92
51053;BME280;37093;37.716;-122.060;2023-04-22T06:39:59;100345.10;;;20.68;39.59
51053;BME280;37093;37.716;-122.060;2023-04-22T06:42:28;100344.73;;;20.96;39.29
51053;BME280;37093;37.716;-122.060;2023-04-22T06:44:56;100339.66;;;20.58;39.58
51053;BME280;37093;37.716;-122.060;2023-04-22T06:47:25;100337.78;;;20.67;40.08
51053;BME280;37093;37.716;-122.060;2023-04-22T06:49:53;100335.28;;;20.65;40.14
51053;BME280;37093;37.716;-122.060;2023-04-22T06:52:21;100334.86;;;20.57;40.17
51053;BME280;37093;37.716;-122.060;2023-04-22T06:54:50;100334.12;;;20.51;40.16
51053;BME280;37093;37.716;-122.060;2023-04-22T06:57:18;100330.48;;;20.44;40.45
51053;BME280;37093;37.716;-122.060;2023-04-22T06:59:47;100328.89;;;20.38;40.84
51053;BME280;37093;37.716;-122.060;2023-04-22T07:01:14;100329.18;;;19.19;40.43
51053;BME280;37093;37.716;-122.060;2023-04-22T07:03:43;100331.43;;;19.45;39.02
51053;BME280;37093;37.716;-122.060;2023-04-22T07:06:11;100324.87;;;21.14;37.20
51053;BME280;37093;37.716;-122.060;2023-04-22T07:08:40;100329.90;;;21.67;37.60
51053;BME280;37093;37.716;-122.060;2023-04-22T07:11:09;100331.53;;;21.03;38.72
51053;BME280;37093;37.716;-122.060;2023-04-22T07:13:37;100332.03;;;20.87;39.13
51053;BME280;37093;37.716;-122.060;2023-04-22T07:16:06;100332.45;;;20.61;39.85
51053;BME280;37093;37.716;-122.060;2023-04-22T07:18:34;100330.81;;;20.46;40.25
51053;BME280;37093;37.716;-122.060;2023-04-22T07:21:02;100326.33;;;20.34;40.47
51053;BME280;37093;37.716;-122.060;2023-04-22T07:23:31;100320.25;;;20.22;40.71
51053;BME280;37093;37.716;-122.060;2023-04-22T07:25:59;100320.02;;;20.12;40.97
51053;BME280;37093;37.716;-122.060;2023-04-22T07:28:28;100316.37;;;20.42;41.07
51053;BME280;37093;37.716;-122.060;2023-04-22T07:30:56;100313.40;;;20.10;41.33
51053;BME280;37093;37.716;-122.060;2023-04-22T07:33:24;100311.51;;;20.18;41.40
51053;BME280;37093;37.716;-122.060;2023-04-22T07:35:52;100307.66;;;19.69;41.62
51053;BME280;37093;37.716;-122.060;2023-04-22T07:38:21;100303.56;;;19.66;41.48
51053;BME280;37093;37.716;-122.060;2023-04-22T07:40:50;100304.07;;;19.71;41.12
51053;BME280;37093;37.716;-122.060;2023-04-22T07:43:18;100297.94;;;20.17;41.40
51053;BME280;37093;37.716;-122.060;2023-04-22T07:45:46;100299.55;;;19.87;41.43
51053;BME280;37093;37.716;-122.060;2023-04-22T07:48:15;100297.22;;;19.61;41.23
51053;BME280;37093;37.716;-122.060;2023-04-22T07:50:44;100298.25;;;20.03;40.74
51053;BME280;37093;37.716;-122.060;2023-04-22T07:53:13;100296.12;;;19.83;41.30
51053;BME280;37093;37.716;-122.060;2023-04-22T07:55:41;100289.17;;;20.04;41.32
51053;BME280;37093;37.716;-122.060;2023-04-22T07:58:10;100287.34;;;19.57;41.60
51053;BME280;37093;37.716;-122.060;2023-04-22T08:00:38;100289.42;;;19.78;41.50
51053;BME280;37093;37.716;-122.060;2023-04-22T08:03:06;100292.08;;;19.96;41.49
51053;BME280;37093;37.716;-122.060;2023-04-22T08:05:35;100292.34;;;19.53;41.45
51053;BME280;37093;37.716;-122.060;2023-04-22T08:08:04;100288.31;;;19.76;41.20
51053;BME280;37093;37.716;-122.060;2023-04-22T08:10:33;100284.77;;;19.74;41.57
51053;BME280;37093;37.716;-122.060;2023-04-22T08:13:01;100278.60;;;19.85;42.03
51053;BME280;37093;37.716;-122.060;2023-04-22T08:15:30;100279.78;;;19.80;42.06
51053;BME280;37093;37.716;-122.060;2023-04-22T08:17:58;100282.57;;;19.56;41.57
51053;BME280;37093;37.716;-122.060;2023-04-22T08:20:26;100281.40;;;19.78;41.72
51053;BME280;37093;37.716;-122.060;2023-04-22T08:22:54;100279.71;;;19.70;42.11
51053;BME280;37093;37.716;-122.060;2023-04-22T08:25:23;100277.00;;;19.72;41.68
51053;BME280;37093;37.716;-122.060;2023-04-22T08:27:52;100277.66;;;19.52;41.43
51053;BME280;37093;37.716;-122.060;2023-04-22T08:30:20;100275.16;;;19.73;41.50
51053;BME280;37093;37.716;-122.060;2023-04-22T08:32:49;100271.21;;;19.46;41.67
51053;BME280;37093;37.716;-122.060;2023-04-22T08:35:18;100269.98;;;19.42;41.60
51053;BME280;37093;37.716;-122.060;2023-04-22T08:37:46;100272.98;;;19.60;41.35
51053;BME280;37093;37.716;-122.060;2023-04-22T08:40:14;100270.93;;;19.59;41.26
51053;BME280;37093;37.716;-122.060;2023-04-22T08:42:44;100263.84;;;19.57;41.29
51053;BME280;37093;37.716;-122.060;2023-04-22T08:45:13;100260.30;;;19.51;41.28
51053;BME280;37093;37.716;-122.060;2023-04-22T08:47:42;100261.14;;;19.56;41.03
51053;BME280;37093;37.716;-122.060;2023-04-22T08:50:11;100260.06;;;19.25;41.02
51053;BME280;37093;37.716;-122.060;2023-04-22T08:52:42;100258.40;;;19.72;40.96
51053;BME280;37093;37.716;-122.060;2023-04-22T08:55:10;100257.05;;;19.35;41.14
51053;BME280;37093;37.716;-122.060;2023-04-22T08:57:39;100252.91;;;19.64;41.26
51053;BME280;37093;37.716;-122.060;2023-04-22T09:00:08;100254.26;;;19.27;42.12
51053;BME280;37093;37.716;-122.060;2023-04-22T09:02:37;100253.34;;;19.20;42.34
51053;BME280;37093;37.716;-122.060;2023-04-22T09:05:09;100248.64;;;19.14;42.32
51053;BME280;37093;37.716;-122.060;2023-04-22T09:07:40;100245.05;;;19.13;42.32
51053;BME280;37093;37.716;-122.060;2023-04-22T09:10:09;100241.74;;;19.07;42.41
51053;BME280;37093;37.716;-122.060;2023-04-22T09:12:39;100235.23;;;19.55;42.38
51053;BME280;37093;37.716;-122.060;2023-04-22T09:15:08;100233.57;;;19.20;42.88
51053;BME280;37093;37.716;-122.060;2023-04-22T09:17:37;100231.56;;;19.19;42.59
51053;BME280;37093;37.716;-122.060;2023-04-22T09:20:07;100228.12;;;18.93;42.85
51053;BME280;37093;37.716;-122.060;2023-04-22T09:22:39;100223.25;;;19.44;42.11
51053;BME280;37093;37.716;-122.060;2023-04-22T09:25:15;100220.83;;;18.89;42.04
51053;BME280;37093;37.716;-122.060;2023-04-22T09:27:48;100215.06;;;18.85;42.79
51053;BME280;37093;37.716;-122.060;2023-04-22T09:30:17;100212.32;;;19.04;42.94
51053;BME280;37093;37.716;-122.060;2023-04-22T09:32:52;100213.49;;;18.96;43.32
51053;BME280;37093;37.716;-122.060;2023-04-22T09:35:30;100212.29;;;19.09;43.50
51053;BME280;37093;37.716;-122.060;2023-04-22T09:38:00;100208.14;;;19.09;43.14
51053;BME280;37093;37.716;-122.060;2023-04-22T09:40:30;100202.73;;;18.53;43.80
51053;BME280;37093;37.716;-122.060;2023-04-22T09:43:01;100202.76;;;19.03;43.58
51053;BME280;37093;37.716;-122.060;2023-04-22T09:45:32;100199.20;;;18.84;43.27
51053;BME280;37093;37.716;-122.060;2023-04-22T09:48:05;100193.37;;;19.00;43.83
51053;BME280;37093;37.716;-122.060;2023-04-22T09:50:35;100190.40;;;18.99;43.59
51053;BME280;37093;37.716;-122.060;2023-04-22T09:53:06;100188.24;;;18.88;44.15
51053;BME280;37093;37.716;-122.060;2023-04-22T09:55:36;100189.05;;;18.78;43.79
51053;BME280;37093;37.716;-122.060;2023-04-22T09:58:06;100187.13;;;18.48;44.18
51053;BME280;37093;37.716;-122.060;2023-04-22T10:00:36;100181.80;;;18.70;44.01
51053;BME280;37093;37.716;-122.060;2023-04-22T10:03:05;100185.48;;;18.74;43.42
51053;BME280;37093;37.716;-122.060;2023-04-22T10:05:34;100183.72;;;18.58;43.70
51053;BME280;37093;37.716;-122.060;2023-04-22T10:08:03;100182.18;;;18.68;44.08
51053;BME280;37093;37.716;-122.060;2023-04-22T10:10:32;100181.51;;;18.60;44.14
51053;BME280;37093;37.716;-122.060;2023-04-22T10:13:01;100174.17;;;18.39;43.88
51053;BME280;37093;37.716;-122.060;2023-04-22T10:15:32;100171.58;;;18.40;43.41
51053;BME280;37093;37.716;-122.060;2023-04-22T10:18:03;100167.41;;;18.59;44.28
51053;BME280;37093;37.716;-122.060;2023-04-22T10:20:35;100168.17;;;18.58;43.87
51053;BME280;37093;37.716;-122.060;2023-04-22T10:23:06;100165.05;;;18.63;43.49
51053;BME280;37093;37.716;-122.060;2023-04-22T10:25:39;100165.39;;;18.39;43.56
51053;BME280;37093;37.716;-122.060;2023-04-22T10:28:09;100166.46;;;18.41;43.44
51053;BME280;37093;37.716;-122.060;2023-04-22T10:30:38;100164.39;;;18.66;42.95
51053;BME280;37093;37.716;-122.060;2023-04-22T10:33:39;100158.43;;;18.59;43.57
51053;BME280;37093;37.716;-122.060;2023-04-22T10:36:12;100161.13;;;18.38;43.38
51053;BME280;37093;37.716;-122.060;2023-04-22T10:39:14;100158.38;;;18.60;43.25
51053;BME280;37093;37.716;-122.060;2023-04-22T10:41:51;100157.63;;;18.40;42.56
51053;BME280;37093;37.716;-122.060;2023-04-22T10:44:20;100154.79;;;18.57;43.21
51053;BME280;37093;37.716;-122.060;2023-04-22T10:46:58;100152.91;;;18.79;43.49
51053;BME280;37093;37.716;-122.060;2023-04-22T10:49:30;100152.50;;;18.23;43.03
51053;BME280;37093;37.716;-122.060;2023-04-22T10:51:59;100149.89;;;18.44;42.81
51053;BME280;37093;37.716;-122.060;2023-04-22T10:55:00;100146.72;;;18.40;42.87
51053;BME280;37093;37.716;-122.060;2023-04-22T10:57:33;100147.48;;;18.35;43.38
51053;BME280;37093;37.716;-122.060;2023-04-22T11:00:37;100145.65;;;18.29;43.41
51053;BME280;37093;37.716;-122.060;2023-04-22T11:03:11;100140.99;;;18.25;43.43
51053;BME280;37093;37.716;-122.060;2023-04-22T11:05:40;100141.16;;;18.21;43.74
51053;BME280;37093;37.716;-122.060;2023-04-22T11:08:12;100136.48;;;18.26;43.48
51053;BME280;37093;37.716;-122.060;2023-04-22T11:10:42;100136.85;;;18.18;43.84
51053;BME280;37093;37.716;-122.060;2023-04-22T11:13:13;100135.56;;;18.19;43.79
51053;BME280;37093;37.716;-122.060;2023-04-22T11:15:43;100130.99;;;18.15;44.17
51053;BME280;37093;37.716;-122.060;2023-04-22T11:18:17;100131.67;;;18.18;43.42
51053;BME280;37093;37.716;-122.060;2023-04-22T11:20:46;100133.26;;;18.17;43.98
51053;BME280;37093;37.716;-122.060;2023-04-22T11:23:20;100133.08;;;18.18;43.87
51053;BME280;37093;37.716;-122.060;2023-04-22T11:25:55;100133.06;;;17.94;43.56
51053;BME280;37093;37.716;-122.060;2023-04-22T11:28:23;100129.27;;;18.00;42.86
51053;BME280;37093;37.716;-122.060;2023-04-22T11:30:52;100123.27;;;18.22;42.78
51053;BME280;37093;37.716;-122.060;2023-04-22T11:33:28;100124.39;;;18.24;43.19
51053;BME280;37093;37.716;-122.060;2023-04-22T11:35:56;100124.80;;;18.22;42.39
51053;BME280;37093;37.716;-122.060;2023-04-22T11:38:25;100121.38;;;18.25;42.92
51053;BME280;37093;37.716;-122.060;2023-04-22T11:40:55;100117.20;;;18.17;43.27
51053;BME280;37093;37.716;-122.060;2023-04-22T11:43:24;100116.65;;;18.14;43.05
51053;BME280;37093;37.716;-122.060;2023-04-22T11:45:55;100112.76;;;18.07;43.51
51053;BME280;37093;37.716;-122.060;2023-04-22T11:48:24;100112.97;;;18.03;43.55
51053;BME280;37093;37.716;-122.060;2023-04-22T11:51:08;100112.25;;;18.04;43.61
51053;BME280;37093;37.716;-122.060;2023-04-22T11:53:36;100108.79;;;18.00;43.73
51053;BME280;37093;37.716;-122.060;2023-04-22T11:56:05;100113.66;;;17.73;43.23
51053;BME280;37093;37.716;-122.060;2023-04-22T11:58:37;100110.99;;;17.86;43.90
51053;BME280;37093;37.716;-122.060;2023-04-22T12:01:05;100110.94;;;17.90;43.88
51053;BME280;37093;37.716;-122.060;2023-04-22T12:03:34;100111.81;;;17.81;44.25
51053;BME280;37093;37.716;-122.060;2023-04-22T12:06:03;100110.43;;;18.05;43.97
51053;BME280;37093;37.716;-122.060;2023-04-22T12:08:33;100112.13;;;17.69;44.06
51053;BME280;37093;37.716;-122.060;2023-04-22T12:11:04;100109.36;;;17.63;44.14
51053;BME280;37093;37.716;-122.060;2023-04-22T12:13:40;100107.89;;;18.10;44.46
51053;BME280;37093;37.716;-122.060;2023-04-22T12:16:11;100106.78;;;17.53;44.49
51053;BME280;37093;37.716;-122.060;2023-04-22T12:18:48;100101.22;;;17.78;44.48
51053;BME280;37093;37.716;-122.060;2023-04-22T12:21:19;100100.54;;;18.04;44.38
51053;BME280;37093;37.716;-122.060;2023-04-22T12:23:48;100103.15;;;17.54;44.46
51053;BME280;37093;37.716;-122.060;2023-04-22T12:26:19;100096.05;;;17.53;44.50
51053;BME280;37093;37.716;-122.060;2023-04-22T12:28:48;100090.35;;;17.79;44.42
51053;BME280;37093;37.716;-122.060;2023-04-22T12:31:18;100087.80;;;17.55;44.09